Time;durP1;ratioP1;P1;durP2;ratioP2;P2;SDS_P1;SDS_P2;PMS_P1;PMS_P2;Temp;Humidity;BMP_temperature;BMP_pressure;BME280_temperature;BME280_humidity;BME280_pressure;Samples;Min_cycle;Max_cycle;Signal;HPM_P1;HPM_P2
2023/10/05 00:04:45;;;;;;;4.05;2.30;;;;;;;;;;4843927;29;20609;-44
2023/10/05 00:07:39;;;;;;;9.30;2.75;;;;;;;;;;4843954;29;20191;-43
2023/10/05 00:10:06;;;;;;;7.57;2.80;;;;;;;;;;4844211;29;20211;-44
2023/10/05 00:12:34;;;;;;;5.10;2.90;;;;;;;;;;4842950;29;20264;-43
2023/10/05 00:17:31;;;;;;;7.85;3.00;;;;;;;;;;4843559;29;20215;-44
2023/10/05 00:19:59;;;;;;;8.18;2.83;;;;;;;;;;4843847;29;20240;-44
2023/10/05 00:22:26;;;;;;;10.05;3.13;;;;;;;;;;4843432;29;20290;-44
2023/10/05 00:24:53;;;;;;;5.20;2.53;;;;;;;;;;4843943;29;20223;-44
2023/10/05 00:27:20;;;;;;;4.30;2.30;;;;;;;;;;4843432;29;20212;-43
2023/10/05 00:29:54;;;;;;;7.90;2.90;;;;;;;;;;4843649;29;20208;-44
2023/10/05 00:32:39;;;;;;;8.18;2.80;;;;;;;;;;4843497;29;20294;-44
2023/10/05 00:35:26;;;;;;;7.38;2.88;;;;;;;;;;4857657;29;20226;-43
2023/10/05 00:37:58;;;;;;;7.05;3.17;;;;;;;;;;4843430;29;20218;-44
2023/10/05 00:40:42;;;;;;;10.82;2.40;;;;;;;;;;4857307;29;20601;-43
2023/10/05 00:43:21;;;;;;;7.70;3.13;;;;;;;;;;4842212;29;20278;-45
2023/10/05 00:45:49;;;;;;;5.70;2.15;;;;;;;;;;4857322;29;20207;-43
2023/10/05 00:48:29;;;;;;;7.15;2.88;;;;;;;;;;4856099;29;20251;-44
2023/10/05 00:51:01;;;;;;;4.60;2.38;;;;;;;;;;4843256;29;20219;-43
2023/10/05 00:53:28;;;;;;;10.18;2.90;;;;;;;;;;4857024;29;20252;-44
2023/10/05 00:56:11;;;;;;;6.80;3.05;;;;;;;;;;4857388;29;20223;-43
2023/10/05 00:58:55;;;;;;;6.70;2.58;;;;;;;;;;4857153;29;20550;-44
2023/10/05 01:01:23;;;;;;;9.35;2.90;;;;;;;;;;4842971;29;20248;-45
2023/10/05 01:06:55;;;;;;;7.55;3.28;;;;;;;;;;4842092;29;20222;-44
2023/10/05 01:10:21;;;;;;;8.07;2.28;;;;;;;;;;4843072;29;20223;-43
2023/10/05 01:12:26;;;;;;;5.45;2.78;;;;;;;;;;4848022;29;20212;-44
2023/10/05 01:14:53;;;;;;;7.70;2.58;;;;;;;;;;4843080;29;20222;-43
2023/10/05 01:17:22;;;;;;;6.22;2.85;;;;;;;;;;4841706;29;20210;-44
2023/10/05 01:19:55;;;;;;;7.47;2.72;;;;;;;;;;4842812;29;20268;-44
2023/10/05 01:22:24;;;;;;;4.90;2.65;;;;;;;;;;4841852;29;20215;-45
2023/10/05 01:24:51;;;;;;;8.65;2.72;;;;;;;;;;4862895;29;20207;-44
2023/10/05 01:27:19;;;;;;;8.75;2.90;;;;;;;;;;4848792;29;20211;-44
2023/10/05 01:29:46;;;;;;;5.38;2.95;;;;;;;;;;4862890;29;20285;-43
2023/10/05 01:32:15;;;;;;;7.65;2.80;;;;;;;;;;4848850;29;20207;-44
2023/10/05 01:34:43;;;;;;;6.78;3.00;;;;;;;;;;4848920;29;20218;-44
2023/10/05 01:37:10;;;;;;;5.97;2.78;;;;;;;;;;4848653;29;20215;-44
2023/10/05 01:39:43;;;;;;;8.52;3.00;;;;;;;;;;4848880;29;20306;-45
2023/10/05 01:42:14;;;;;;;11.43;3.17;;;;;;;;;;4848691;29;20684;-44
2023/10/05 01:44:46;;;;;;;5.88;2.88;;;;;;;;;;4848624;29;20222;-44
2023/10/05 01:47:15;;;;;;;6.65;2.60;;;;;;;;;;4862490;29;20585;-43
2023/10/05 01:49:44;;;;;;;9.10;2.95;;;;;;;;;;4862836;29;20234;-44
2023/10/05 01:52:17;;;;;;;8.27;2.75;;;;;;;;;;4862728;29;20695;-44
2023/10/05 01:54:44;;;;;;;8.98;3.05;;;;;;;;;;4848896;29;20269;-45
2023/10/05 01:57:16;;;;;;;6.40;3.15;;;;;;;;;;4848532;29;20677;-44
2023/10/05 01:59:43;;;;;;;9.35;3.30;;;;;;;;;;4862750;29;20207;-44
2023/10/05 02:02:12;;;;;;;4.85;2.83;;;;;;;;;;4862564;29;20259;-45
2023/10/05 02:04:49;;;;;;;7.55;3.40;;;;;;;;;;4848248;29;20812;-44
2023/10/05 02:07:16;;;;;;;4.50;2.58;;;;;;;;;;4862678;29;20234;-43
2023/10/05 02:09:43;;;;;;;6.50;3.30;;;;;;;;;;4848377;29;20693;-44
2023/10/05 02:12:11;;;;;;;6.90;3.05;;;;;;;;;;4862497;29;20204;-45
2023/10/05 02:14:41;;;;;;;6.28;3.28;;;;;;;;;;4848407;29;20218;-44
2023/10/05 02:17:10;;;;;;;10.65;3.38;;;;;;;;;;4862791;29;20215;-44
2023/10/05 02:19:41;;;;;;;7.15;3.38;;;;;;;;;;4848447;29;20215;-44
2023/10/05 02:22:11;;;;;;;6.93;3.53;;;;;;;;;;4862561;29;20219;-44
2023/10/05 02:24:42;;;;;;;5.45;3.50;;;;;;;;;;4848308;29;20668;-44
2023/10/05 02:27:09;;;;;;;5.45;2.88;;;;;;;;;;4862438;29;20226;-43
2023/10/05 02:29:40;;;;;;;11.05;3.95;;;;;;;;;;4848099;29;20743;-44
2023/10/05 02:32:11;;;;;;;7.78;3.13;;;;;;;;;;4848365;29;20210;-44
2023/10/05 02:37:07;;;;;;;7.18;3.75;;;;;;;;;;4845334;29;20211;-43
2023/10/05 02:39:37;;;;;;;11.65;3.67;;;;;;;;;;4859444;29;20212;-44
2023/10/05 02:42:06;;;;;;;5.88;3.78;;;;;;;;;;4845459;29;20260;-45
2023/10/05 02:44:35;;;;;;;6.82;3.00;;;;;;;;;;4859580;29;20272;-44
2023/10/05 02:47:08;;;;;;;5.93;3.58;;;;;;;;;;4845333;29;20211;-45
2023/10/05 02:49:40;;;;;;;16.30;4.13;;;;;;;;;;4845250;29;20230;-44
2023/10/05 02:52:09;;;;;;;5.25;3.40;;;;;;;;;;4844874;29;20208;-44
2023/10/05 02:54:36;;;;;;;9.65;3.85;;;;;;;;;;4845216;29;20247;-44
2023/10/05 02:57:07;;;;;;;8.13;3.55;;;;;;;;;;4859058;29;20211;-43
2023/10/05 02:59:34;;;;;;;7.45;3.65;;;;;;;;;;4859165;29;20298;-45
2023/10/05 03:02:14;;;;;;;8.77;3.75;;;;;;;;;;4859128;29;20226;-44
2023/10/05 03:04:46;;;;;;;14.60;4.45;;;;;;;;;;4844854;29;20222;-44
2023/10/05 03:07:19;;;;;;;7.75;3.72;;;;;;;;;;4859159;29;20211;-43
2023/10/05 03:09:50;;;;;;;11.18;4.72;;;;;;;;;;4859106;29;20231;-44
2023/10/05 03:12:23;;;;;;;11.40;5.55;;;;;;;;;;4858869;29;20623;-43
2023/10/05 03:14:54;;;;;;;8.15;4.50;;;;;;;;;;4858960;29;20218;-44
2023/10/05 03:17:26;;;;;;;11.10;4.28;;;;;;;;;;4859024;29;20212;-44
2023/10/05 03:19:54;;;;;;;7.47;4.05;;;;;;;;;;4858961;29;20219;-45
2023/10/05 03:22:24;;;;;;;9.40;4.88;;;;;;;;;;4843417;29;20275;-45
2023/10/05 03:24:56;;;;;;;7.07;4.63;;;;;;;;;;4858705;29;20219;-45
2023/10/05 03:27:25;;;;;;;10.00;5.40;;;;;;;;;;4858480;29;20208;-43
2023/10/05 03:30:00;;;;;;;8.45;4.63;;;;;;;;;;4858435;29;20243;-44
2023/10/05 03:32:30;;;;;;;12.35;5.05;;;;;;;;;;4858498;29;20248;-43
2023/10/05 03:34:58;;;;;;;8.18;5.00;;;;;;;;;;4858889;29;20235;-44
2023/10/05 03:37:31;;;;;;;8.52;5.05;;;;;;;;;;4843022;29;20226;-43
2023/10/05 03:42:32;;;;;;;10.20;5.07;;;;;;;;;;4858310;29;20211;-44
2023/10/05 03:45:03;;;;;;;9.32;5.35;;;;;;;;;;4844061;29;20260;-43
2023/10/05 03:47:37;;;;;;;9.20;5.45;;;;;;;;;;4843952;29;20215;-43
2023/10/05 03:50:06;;;;;;;10.05;4.93;;;;;;;;;;4857409;29;20235;-44
2023/10/05 03:52:34;;;;;;;12.93;4.60;;;;;;;;;;4842258;29;20557;-43
2023/10/05 03:55:09;;;;;;;6.65;3.90;;;;;;;;;;4850639;29;20239;-48
2023/10/05 03:57:38;;;;;;;10.32;3.90;;;;;;;;;;4842747;29;20195;-45
2023/10/05 04:02:46;;;;;;;9.07;4.22;;;;;;;;;;4842262;29;20204;-44
2023/10/05 04:05:17;;;;;;;9.82;4.25;;;;;;;;;;4837274;29;20239;-43
2023/10/05 04:07:47;;;;;;;8.23;4.07;;;;;;;;;;4842909;29;20239;-43
2023/10/05 04:10:20;;;;;;;8.48;3.95;;;;;;;;;;4842770;29;20239;-44
2023/10/05 04:12:55;;;;;;;7.43;3.95;;;;;;;;;;4860349;29;20227;-43
2023/10/05 04:15:23;;;;;;;14.38;4.10;;;;;;;;;;4849046;29;20738;-44
2023/10/05 04:17:50;;;;;;;7.60;4.20;;;;;;;;;;4861216;29;20231;-43
2023/10/05 04:20:19;;;;;;;8.70;3.60;;;;;;;;;;4849211;29;20238;-44
2023/10/05 04:22:49;;;;;;;7.78;3.72;;;;;;;;;;4860836;29;20238;-44
2023/10/05 04:25:16;;;;;;;7.30;3.72;;;;;;;;;;4861064;29;20242;-43
2023/10/05 04:27:48;;;;;;;8.75;3.50;;;;;;;;;;4860815;29;20230;-44
2023/10/05 04:30:24;;;;;;;8.88;4.30;;;;;;;;;;4861131;29;20250;-43
2023/10/05 04:32:52;;;;;;;8.75;4.15;;;;;;;;;;4860972;29;20260;-44
2023/10/05 04:35:27;;;;;;;6.43;3.95;;;;;;;;;;4860438;29;20241;-43
2023/10/05 04:37:54;;;;;;;7.85;4.07;;;;;;;;;;4857793;29;20230;-44
2023/10/05 04:40:24;;;;;;;18.45;12.25;;;;;;;;;;4860319;29;20289;-44
2023/10/05 04:42:58;;;;;;;8.68;3.95;;;;;;;;;;4859995;29;20242;-44
2023/10/05 04:45:27;;;;;;;9.38;4.00;;;;;;;;;;4841492;29;20743;-44
2023/10/05 04:47:58;;;;;;;12.10;4.80;;;;;;;;;;4840691;29;20239;-44
2023/10/05 04:50:26;;;;;;;9.85;4.53;;;;;;;;;;4842837;29;20243;-44
2023/10/05 04:52:55;;;;;;;7.93;4.80;;;;;;;;;;4841415;29;20259;-44
2023/10/05 04:55:31;;;;;;;10.57;4.70;;;;;;;;;;4841982;29;20269;-44
2023/10/05 04:58:21;;;;;;;8.05;4.68;;;;;;;;;;4840170;29;20598;-44
2023/10/05 05:01:04;;;;;;;14.05;5.70;;;;;;;;;;4841543;29;20203;-47
2023/10/05 05:03:47;;;;;;;11.38;5.25;;;;;;;;;;4840790;29;20210;-43
2023/10/05 05:06:15;;;;;;;9.77;5.15;;;;;;;;;;4840119;29;20231;-44
2023/10/05 05:08:44;;;;;;;14.60;5.75;;;;;;;;;;4839662;29;20204;-45
2023/10/05 05:11:21;;;;;;;12.38;5.65;;;;;;;;;;4841441;29;20663;-44
2023/10/05 05:13:48;;;;;;;11.65;5.03;;;;;;;;;;4841858;29;20247;-44
2023/10/05 05:16:16;;;;;;;9.85;5.07;;;;;;;;;;4842479;29;20210;-44
2023/10/05 05:18:43;;;;;;;17.27;6.05;;;;;;;;;;4842180;29;20200;-44
2023/10/05 05:21:11;;;;;;;11.07;4.43;;;;;;;;;;4841942;29;20215;-44
2023/10/05 05:23:42;;;;;;;9.40;4.50;;;;;;;;;;4842104;29;20214;-44
2023/10/05 05:26:11;;;;;;;13.13;5.10;;;;;;;;;;4839997;29;20268;-43
2023/10/05 05:28:39;;;;;;;13.10;5.00;;;;;;;;;;4842296;29;20255;-43
2023/10/05 05:31:07;;;;;;;18.05;5.68;;;;;;;;;;4842355;29;20206;-45
2023/10/05 05:33:38;;;;;;;11.18;4.53;;;;;;;;;;4842568;29;20275;-44
2023/10/05 05:36:11;;;;;;;18.58;6.13;;;;;;;;;;4842638;29;20294;-44
2023/10/05 05:38:39;;;;;;;16.85;8.23;;;;;;;;;;4842660;29;20264;-44
2023/10/05 05:41:11;;;;;;;19.63;10.60;;;;;;;;;;4842140;29;20207;-43
2023/10/05 05:43:41;;;;;;;16.85;8.82;;;;;;;;;;4842572;29;20207;-45
2023/10/05 05:46:14;;;;;;;16.45;7.72;;;;;;;;;;4842281;29;20291;-45
2023/10/05 05:48:43;;;;;;;17.17;10.25;;;;;;;;;;4842370;29;20219;-45
2023/10/05 05:51:17;;;;;;;21.27;11.05;;;;;;;;;;4842857;29;20594;-44
2023/10/05 05:53:48;;;;;;;17.63;11.68;;;;;;;;;;4842892;29;20275;-44
2023/10/05 05:56:19;;;;;;;12.85;8.30;;;;;;;;;;4842544;29;20235;-44
2023/10/05 05:58:46;;;;;;;12.25;7.13;;;;;;;;;;4842445;29;20215;-44
2023/10/05 06:01:17;;;;;;;20.25;8.50;;;;;;;;;;4842367;29;20216;-43
2023/10/05 06:03:47;;;;;;;27.30;12.40;;;;;;;;;;4842118;29;20219;-45
2023/10/05 06:06:16;;;;;;;17.38;8.93;;;;;;;;;;4842559;29;20231;-43
2023/10/05 06:08:44;;;;;;;11.50;5.72;;;;;;;;;;4841853;29;20698;-43
2023/10/05 06:11:12;;;;;;;19.15;7.40;;;;;;;;;;4844231;29;20228;-44
2023/10/05 06:13:42;;;;;;;17.83;9.60;;;;;;;;;;4845538;29;20219;-44
2023/10/05 06:16:09;;;;;;;13.43;6.45;;;;;;;;;;4845658;29;20216;-44
2023/10/05 06:18:37;;;;;;;11.18;5.95;;;;;;;;;;4845921;29;20207;-44
2023/10/05 06:21:05;;;;;;;12.07;3.80;;;;;;;;;;4845607;29;20220;-43
2023/10/05 06:23:33;;;;;;;10.32;4.53;;;;;;;;;;4845810;29;20234;-44
2023/10/05 06:26:01;;;;;;;10.60;5.43;;;;;;;;;;4844593;29;20573;-45
2023/10/05 06:28:32;;;;;;;11.73;5.22;;;;;;;;;;4845627;29;20230;-44
2023/10/05 06:31:01;;;;;;;16.13;8.57;;;;;;;;;;4845613;29;20280;-44
2023/10/05 06:33:29;;;;;;;13.70;7.47;;;;;;;;;;4845666;29;20211;-45
2023/10/05 06:35:56;;;;;;;9.82;5.55;;;;;;;;;;4845547;29;20674;-43
2023/10/05 06:38:23;;;;;;;14.23;5.10;;;;;;;;;;4845452;29;20216;-44
2023/10/05 06:40:50;;;;;;;14.80;5.60;;;;;;;;;;4845085;29;20678;-45
2023/10/05 06:43:18;;;;;;;12.88;6.63;;;;;;;;;;4845217;29;20673;-44
2023/10/05 06:45:45;;;;;;;21.95;11.05;;;;;;;;;;4845676;29;20615;-45
2023/10/05 06:48:14;;;;;;;13.70;6.20;;;;;;;;;;4845404;29;20207;-44
2023/10/05 06:50:43;;;;;;;14.00;5.63;;;;;;;;;;4845053;29;20696;-44
2023/10/05 06:53:13;;;;;;;9.73;5.05;;;;;;;;;;4845212;29;20250;-44
2023/10/05 06:55:40;;;;;;;12.73;7.10;;;;;;;;;;4845251;29;20219;-44
2023/10/05 06:58:09;;;;;;;11.50;4.93;;;;;;;;;;4845305;29;20211;-44
2023/10/05 07:00:36;;;;;;;7.82;4.30;;;;;;;;;;4844702;29;20215;-45
2023/10/05 07:03:06;;;;;;;9.32;4.35;;;;;;;;;;4844807;29;20208;-44
2023/10/05 07:05:34;;;;;;;8.80;3.47;;;;;;;;;;4844985;29;20203;-44
2023/10/05 07:08:03;;;;;;;10.00;3.38;;;;;;;;;;4844737;29;20207;-45
2023/10/05 07:10:31;;;;;;;7.38;3.20;;;;;;;;;;4844352;29;20247;-44
2023/10/05 07:12:58;;;;;;;12.27;4.38;;;;;;;;;;4845102;29;20203;-45
2023/10/05 07:15:25;;;;;;;7.38;4.15;;;;;;;;;;4844708;29;20664;-45
2023/10/05 07:17:53;;;;;;;10.95;3.85;;;;;;;;;;4844680;29;20271;-44
2023/10/05 07:20:20;;;;;;;10.40;3.85;;;;;;;;;;4844540;29;20243;-44
2023/10/05 07:22:47;;;;;;;14.38;4.35;;;;;;;;;;4844193;29;20211;-44
2023/10/05 07:25:17;;;;;;;7.35;3.25;;;;;;;;;;4844260;29;20294;-44
2023/10/05 07:27:45;;;;;;;7.57;3.22;;;;;;;;;;4844453;29;20222;-44
2023/10/05 07:30:13;;;;;;;10.15;3.95;;;;;;;;;;4844310;29;20231;-44
2023/10/05 07:32:41;;;;;;;9.20;3.38;;;;;;;;;;4844511;29;20216;-44
2023/10/05 07:35:09;;;;;;;9.55;3.65;;;;;;;;;;4844464;29;20571;-45
2023/10/05 07:37:37;;;;;;;11.80;3.70;;;;;;;;;;4844526;29;20215;-44
2023/10/05 07:40:07;;;;;;;8.82;3.58;;;;;;;;;;4843914;29;20214;-44
2023/10/05 07:42:37;;;;;;;11.13;3.75;;;;;;;;;;4844291;29;20210;-45
2023/10/05 07:45:13;;;;;;;11.52;4.22;;;;;;;;;;4844276;29;20211;-45
2023/10/05 07:47:42;;;;;;;13.05;3.10;;;;;;;;;;4844297;29;20219;-45
2023/10/05 07:50:10;;;;;;;6.97;3.58;;;;;;;;;;4843984;29;20238;-44
2023/10/05 07:52:39;;;;;;;9.35;3.53;;;;;;;;;;4843832;29;20207;-44
2023/10/05 07:55:08;;;;;;;7.57;3.80;;;;;;;;;;4843868;29;20234;-44
2023/10/05 07:57:35;;;;;;;11.77;4.00;;;;;;;;;;4844036;29;20219;-44
2023/10/05 08:00:06;;;;;;;13.85;6.47;;;;;;;;;;4844002;29;20248;-44
2023/10/05 08:02:41;;;;;;;12.65;4.32;;;;;;;;;;4843995;29;20302;-44
2023/10/05 08:05:11;;;;;;;10.73;3.40;;;;;;;;;;4844092;29;20242;-44
2023/10/05 08:07:40;;;;;;;8.95;3.80;;;;;;;;;;4843766;29;20272;-44
2023/10/05 08:10:15;;;;;;;12.73;3.47;;;;;;;;;;4843820;29;20287;-46
2023/10/05 08:12:43;;;;;;;13.50;4.22;;;;;;;;;;4843684;29;20222;-44
2023/10/05 08:15:14;;;;;;;7.43;2.80;;;;;;;;;;4843442;29;20214;-44
2023/10/05 08:17:41;;;;;;;9.77;3.25;;;;;;;;;;4843799;29;20218;-44
2023/10/05 08:20:09;;;;;;;13.65;3.40;;;;;;;;;;4843794;29;20219;-44
2023/10/05 08:22:37;;;;;;;11.32;3.58;;;;;;;;;;4843457;29;20662;-44
2023/10/05 08:25:10;;;;;;;16.20;3.72;;;;;;;;;;4843517;29;20207;-44
2023/10/05 08:27:38;;;;;;;11.52;4.03;;;;;;;;;;4842985;29;20202;-45
2023/10/05 08:30:07;;;;;;;8.63;3.28;;;;;;;;;;4843466;29;20231;-43
2023/10/05 08:32:36;;;;;;;9.10;3.47;;;;;;;;;;4842590;29;20218;-44
2023/10/05 08:35:12;;;;;;;7.57;3.05;;;;;;;;;;4843443;29;20207;-44
2023/10/05 08:37:50;;;;;;;9.55;3.05;;;;;;;;;;4843408;29;20211;-45
2023/10/05 08:43:10;;;;;;;14.95;3.78;;;;;;;;;;4843117;29;20237;-44
2023/10/05 08:45:51;;;;;;;10.43;3.50;;;;;;;;;;4843144;29;20325;-44
2023/10/05 08:48:28;;;;;;;10.75;3.42;;;;;;;;;;4843201;29;20223;-45
2023/10/05 08:51:10;;;;;;;7.57;2.92;;;;;;;;;;4843024;29;20700;-44
2023/10/05 08:53:57;;;;;;;10.63;3.10;;;;;;;;;;4843406;29;20303;-44
2023/10/05 08:56:25;;;;;;;8.57;3.08;;;;;;;;;;4856614;29;20246;-44
2023/10/05 08:58:53;;;;;;;8.40;3.10;;;;;;;;;;4842974;29;20215;-44
2023/10/05 09:01:31;;;;;;;5.82;2.50;;;;;;;;;;4843377;29;20582;-44
2023/10/05 09:04:23;;;;;;;4.05;2.47;;;;;;;;;;4842760;29;20610;-44
2023/10/05 09:06:56;;;;;;;10.43;3.53;;;;;;;;;;4842860;29;20203;-44
2023/10/05 09:17:57;;;;;;;9.60;3.03;;;;;;;;;;4842688;29;20622;-44
2023/10/05 09:20:33;;;;;;;6.50;2.88;;;;;;;;;;4842919;29;20211;-45
2023/10/05 09:23:09;;;;;;;10.10;3.45;;;;;;;;;;4842939;29;20632;-45
2023/10/05 09:25:38;;;;;;;7.28;3.00;;;;;;;;;;4842764;29;20621;-44
2023/10/05 09:28:14;;;;;;;6.63;2.90;;;;;;;;;;4856085;29;20214;-44
2023/10/05 09:30:49;;;;;;;7.68;2.67;;;;;;;;;;4842819;29;20235;-44
2023/10/05 09:33:19;;;;;;;12.85;2.97;;;;;;;;;;4842678;29;20269;-44
2023/10/05 09:35:47;;;;;;;8.27;2.80;;;;;;;;;;4842494;29;20211;-44
2023/10/05 09:38:17;;;;;;;9.68;4.90;;;;;;;;;;4842443;29;20629;-44
2023/10/05 09:40:47;;;;;;;7.88;3.38;;;;;;;;;;4856229;29;20548;-44
2023/10/05 09:43:21;;;;;;;11.60;3.17;;;;;;;;;;4824423;29;20206;-44
2023/10/05 09:45:52;;;;;;;10.05;3.20;;;;;;;;;;4841649;29;20238;-45
2023/10/05 09:48:21;;;;;;;10.05;3.00;;;;;;;;;;4828117;29;20689;-43
2023/10/05 09:50:48;;;;;;;5.68;3.20;;;;;;;;;;4827649;29;20242;-45
2023/10/05 09:53:19;;;;;;;7.35;2.97;;;;;;;;;;4845780;29;20312;-44
2023/10/05 09:55:53;;;;;;;8.82;3.92;;;;;;;;;;4846118;29;20211;-46
2023/10/05 09:58:21;;;;;;;6.07;2.72;;;;;;;;;;4846428;29;20221;-44
2023/10/05 10:00:49;;;;;;;8.60;3.40;;;;;;;;;;4845865;29;20212;-44
2023/10/05 10:03:17;;;;;;;7.70;3.25;;;;;;;;;;4846007;29;20321;-44
2023/10/05 10:05:48;;;;;;;7.88;2.50;;;;;;;;;;4846085;29;20245;-45
2023/10/05 10:08:23;;;;;;;9.40;2.85;;;;;;;;;;4860209;29;20208;-44
2023/10/05 10:11:02;;;;;;;10.88;3.03;;;;;;;;;;4845647;29;20582;-45
2023/10/05 10:13:37;;;;;;;6.70;2.45;;;;;;;;;;4845806;29;20687;-44
2023/10/05 10:16:26;;;;;;;9.93;2.70;;;;;;;;;;4845807;29;20207;-44
2023/10/05 10:19:04;;;;;;;6.38;2.60;;;;;;;;;;4845933;29;20219;-46
2023/10/05 10:21:34;;;;;;;6.35;2.63;;;;;;;;;;4845709;29;20220;-44
2023/10/05 10:24:08;;;;;;;12.93;2.75;;;;;;;;;;4845646;29;20670;-44
2023/10/05 10:26:44;;;;;;;7.00;2.65;;;;;;;;;;4845884;29;20259;-44
2023/10/05 10:29:16;;;;;;;9.48;2.83;;;;;;;;;;4845827;29;20203;-45
2023/10/05 10:31:47;;;;;;;8.00;3.20;;;;;;;;;;4845275;29;20230;-45
2023/10/05 10:34:41;;;;;;;9.73;2.83;;;;;;;;;;4845414;29;20656;-46
2023/10/05 10:37:10;;;;;;;14.05;3.33;;;;;;;;;;4843592;29;20256;-45
2023/10/05 10:39:37;;;;;;;10.82;3.08;;;;;;;;;;4845270;29;20265;-45
2023/10/05 10:42:07;;;;;;;7.50;2.92;;;;;;;;;;4844076;29;20673;-46
2023/10/05 10:44:57;;;;;;;7.22;2.70;;;;;;;;;;4845402;29;20215;-45
2023/10/05 10:47:27;;;;;;;7.18;2.70;;;;;;;;;;4844932;29;20212;-44
2023/10/05 10:50:14;;;;;;;6.78;2.15;;;;;;;;;;4845131;29;20698;-44
2023/10/05 10:52:44;;;;;;;5.68;2.33;;;;;;;;;;4845029;29;20215;-44
2023/10/05 10:55:15;;;;;;;8.38;2.47;;;;;;;;;;4844331;29;20219;-45
2023/10/05 10:57:53;;;;;;;6.53;2.67;;;;;;;;;;4844687;29;20208;-44
2023/10/05 11:03:24;;;;;;;9.30;2.70;;;;;;;;;;4879738;29;20225;-45
2023/10/05 11:05:52;;;;;;;7.82;2.45;;;;;;;;;;4879935;29;20209;-45
2023/10/05 11:08:22;;;;;;;6.63;2.60;;;;;;;;;;4879831;29;20206;-44
2023/10/05 11:10:54;;;;;;;8.52;2.88;;;;;;;;;;4879616;29;20222;-44
2023/10/05 11:13:24;;;;;;;5.05;2.45;;;;;;;;;;4864318;29;20202;-45
2023/10/05 11:16:00;;;;;;;6.82;2.75;;;;;;;;;;4879853;29;20216;-44
2023/10/05 11:18:34;;;;;;;8.23;2.90;;;;;;;;;;4879557;29;20206;-45
2023/10/05 11:21:13;;;;;;;8.68;2.60;;;;;;;;;;4879603;29;20244;-44
2023/10/05 11:23:44;;;;;;;6.70;2.60;;;;;;;;;;4879589;29;20213;-44
2023/10/05 11:26:17;;;;;;;12.50;3.03;;;;;;;;;;4879552;29;20292;-44
2023/10/05 11:28:48;;;;;;;8.48;2.67;;;;;;;;;;4879457;29;20210;-44
2023/10/05 11:31:22;;;;;;;6.97;2.97;;;;;;;;;;4879598;29;20272;-45
2023/10/05 11:34:13;;;;;;;8.05;2.60;;;;;;;;;;4879418;29;20217;-44
2023/10/05 11:37:01;;;;;;;6.47;2.78;;;;;;;;;;4879103;29;20604;-45
2023/10/05 11:39:38;;;;;;;6.75;2.58;;;;;;;;;;4854759;29;20219;-45
2023/10/05 11:42:05;;;;;;;7.57;2.53;;;;;;;;;;4844279;29;20211;-44
2023/10/05 11:44:33;;;;;;;6.63;2.88;;;;;;;;;;4844059;29;20692;-45
2023/10/05 11:47:00;;;;;;;9.23;2.67;;;;;;;;;;4843511;29;20272;-45
2023/10/05 11:49:30;;;;;;;8.18;2.95;;;;;;;;;;4841169;29;20204;-45
2023/10/05 11:52:00;;;;;;;9.07;3.40;;;;;;;;;;4843382;29;20231;-45
2023/10/05 11:54:30;;;;;;;8.18;3.78;;;;;;;;;;4841368;29;20235;-44
2023/10/05 11:57:01;;;;;;;5.93;3.15;;;;;;;;;;4843756;29;20212;-47
2023/10/05 11:59:36;;;;;;;7.13;3.05;;;;;;;;;;4843551;29;20199;-45
2023/10/05 12:02:08;;;;;;;9.90;3.55;;;;;;;;;;4843014;29;20556;-45
2023/10/05 12:04:39;;;;;;;7.45;3.03;;;;;;;;;;4844297;29;20204;-45
2023/10/05 12:07:08;;;;;;;7.13;2.67;;;;;;;;;;4849421;29;20192;-45
2023/10/05 12:09:36;;;;;;;6.70;2.63;;;;;;;;;;4843789;29;20263;-47
2023/10/05 12:12:05;;;;;;;7.22;2.72;;;;;;;;;;4843187;29;20314;-45
2023/10/05 12:14:32;;;;;;;8.52;2.40;;;;;;;;;;4843401;29;20223;-44
2023/10/05 12:17:00;;;;;;;6.38;2.35;;;;;;;;;;4843728;29;20212;-45
2023/10/05 12:19:30;;;;;;;6.78;2.22;;;;;;;;;;4843883;29;20211;-45
2023/10/05 12:22:01;;;;;;;6.05;2.63;;;;;;;;;;4843348;29;20230;-45
2023/10/05 12:24:30;;;;;;;6.05;2.30;;;;;;;;;;4832991;29;20207;-45
2023/10/05 12:27:04;;;;;;;9.55;2.25;;;;;;;;;;4843449;29;20215;-45
2023/10/05 12:29:32;;;;;;;6.15;2.70;;;;;;;;;;4843535;29;20199;-45
2023/10/05 12:32:01;;;;;;;5.80;1.88;;;;;;;;;;4842180;29;20237;-51
2023/10/05 12:34:28;;;;;;;4.95;2.40;;;;;;;;;;4842681;29;20211;-45
2023/10/05 12:36:56;;;;;;;5.03;2.28;;;;;;;;;;4843201;29;20758;-45
2023/10/05 12:39:27;;;;;;;7.38;2.55;;;;;;;;;;4841143;29;20239;-45
2023/10/05 12:41:55;;;;;;;5.72;2.25;;;;;;;;;;4842192;29;20238;-45
2023/10/05 12:44:23;;;;;;;7.40;2.08;;;;;;;;;;4842250;29;20231;-45
2023/10/05 12:46:50;;;;;;;6.97;2.33;;;;;;;;;;4842486;29;20699;-44
2023/10/05 12:49:19;;;;;;;4.82;1.98;;;;;;;;;;4842148;29;20232;-45
2023/10/05 12:51:47;;;;;;;8.93;2.25;;;;;;;;;;4841239;29;20595;-45
2023/10/05 12:54:28;;;;;;;6.72;2.50;;;;;;;;;;4844866;29;20239;-46
2023/10/05 12:56:57;;;;;;;6.45;2.33;;;;;;;;;;4846059;29;20554;-46
2023/10/05 12:59:44;;;;;;;5.53;1.88;;;;;;;;;;4852377;29;20226;-45
2023/10/05 13:02:15;;;;;;;4.15;1.90;;;;;;;;;;4852856;29;20313;-44
2023/10/05 13:04:43;;;;;;;7.43;2.15;;;;;;;;;;4851388;29;20231;-45
2023/10/05 13:07:16;;;;;;;4.93;2.05;;;;;;;;;;4846932;29;20234;-44
2023/10/05 13:09:43;;;;;;;8.52;1.95;;;;;;;;;;4841010;29;20596;-44
2023/10/05 13:12:12;;;;;;;5.10;2.00;;;;;;;;;;4841758;29;20661;-45
2023/10/05 13:14:39;;;;;;;7.25;2.58;;;;;;;;;;4838816;29;20223;-44
2023/10/05 13:17:11;;;;;;;6.47;2.20;;;;;;;;;;4841566;29;20229;-46
2023/10/05 13:19:40;;;;;;;5.68;2.40;;;;;;;;;;4836410;29;20231;-45
2023/10/05 13:22:11;;;;;;;8.40;2.33;;;;;;;;;;4841859;29;20248;-49
2023/10/05 13:24:40;;;;;;;4.35;1.83;;;;;;;;;;4839058;29;20739;-45
2023/10/05 13:27:08;;;;;;;7.25;2.65;;;;;;;;;;4841527;29;20761;-46
2023/10/05 13:29:42;;;;;;;3.53;2.08;;;;;;;;;;4841633;29;20271;-45
2023/10/05 13:32:12;;;;;;;4.80;1.50;;;;;;;;;;4841837;29;20239;-44
2023/10/05 13:34:40;;;;;;;4.93;2.17;;;;;;;;;;4841735;29;20234;-44
2023/10/05 13:37:08;;;;;;;4.70;2.15;;;;;;;;;;4841915;29;20604;-45
2023/10/05 13:39:36;;;;;;;7.32;2.20;;;;;;;;;;4843695;29;20230;-44
2023/10/05 13:42:09;;;;;;;6.25;2.03;;;;;;;;;;4850573;29;20231;-45
2023/10/05 13:44:37;;;;;;;5.30;1.92;;;;;;;;;;4847290;29;20232;-46
2023/10/05 13:47:05;;;;;;;7.22;2.53;;;;;;;;;;4859987;29;20242;-46
2023/10/05 13:49:36;;;;;;;8.32;2.22;;;;;;;;;;4860333;29;20230;-47
2023/10/05 13:52:05;;;;;;;4.72;2.10;;;;;;;;;;4860227;29;20242;-43
2023/10/05 13:54:35;;;;;;;8.13;2.67;;;;;;;;;;4859976;29;20258;-44
2023/10/05 13:57:03;;;;;;;7.53;2.90;;;;;;;;;;4860116;29;20262;-44
2023/10/05 13:59:31;;;;;;;6.88;2.05;;;;;;;;;;4859892;29;20236;-45
2023/10/05 14:02:00;;;;;;;10.18;2.60;;;;;;;;;;4860264;29;20239;-44
2023/10/05 14:04:30;;;;;;;12.30;2.28;;;;;;;;;;4841973;29;20227;-45
2023/10/05 14:07:02;;;;;;;7.03;2.47;;;;;;;;;;4840987;29;20257;-44
2023/10/05 14:09:41;;;;;;;6.00;2.17;;;;;;;;;;4840859;29;20293;-46
2023/10/05 14:12:10;;;;;;;5.90;2.10;;;;;;;;;;4842284;29;20267;-44
2023/10/05 14:14:39;;;;;;;3.88;2.05;;;;;;;;;;4858767;29;20219;-46
2023/10/05 14:17:09;;;;;;;9.10;2.22;;;;;;;;;;4845207;29;20255;-50
2023/10/05 14:19:36;;;;;;;6.75;2.33;;;;;;;;;;4845141;29;20708;-45
2023/10/05 14:22:04;;;;;;;6.15;2.13;;;;;;;;;;4847211;29;20228;-49
2023/10/05 14:24:34;;;;;;;9.40;3.55;;;;;;;;;;4846200;29;20234;-45
2023/10/05 14:27:05;;;;;;;11.48;2.22;;;;;;;;;;4857675;29;21687;-50
2023/10/05 14:29:36;;;;;;;10.00;2.38;;;;;;;;;;4852056;29;20268;-47
2023/10/05 14:32:05;;;;;;;5.53;2.45;;;;;;;;;;4842364;29;20239;-47
2023/10/05 14:34:35;;;;;;;4.75;1.98;;;;;;;;;;4846869;29;20279;-46
2023/10/05 14:37:05;;;;;;;4.90;2.10;;;;;;;;;;4844076;29;20236;-48
2023/10/05 14:39:37;;;;;;;6.38;2.47;;;;;;;;;;4864667;29;20227;-44
2023/10/05 14:42:08;;;;;;;7.13;1.98;;;;;;;;;;4844613;29;20235;-43
2023/10/05 14:44:36;;;;;;;7.13;1.70;;;;;;;;;;4844671;29;20629;-43
2023/10/05 14:47:12;;;;;;;5.93;1.98;;;;;;;;;;4844357;29;20264;-43
2023/10/05 14:49:40;;;;;;;6.78;2.10;;;;;;;;;;4841802;29;20738;-44
2023/10/05 14:52:08;;;;;;;5.32;1.98;;;;;;;;;;4837200;29;20239;-45
2023/10/05 14:54:39;;;;;;;6.05;1.77;;;;;;;;;;4849501;29;20412;-47
2023/10/05 14:57:08;;;;;;;4.68;1.55;;;;;;;;;;4863447;29;20259;-43
2023/10/05 14:59:37;;;;;;;4.78;2.00;;;;;;;;;;4843490;29;20728;-43
2023/10/05 15:02:06;;;;;;;5.10;2.10;;;;;;;;;;4842479;29;20591;-44
2023/10/05 15:04:33;;;;;;;6.28;2.00;;;;;;;;;;4844343;29;20292;-43
2023/10/05 15:07:00;;;;;;;4.30;1.85;;;;;;;;;;4843769;29;20589;-45
2023/10/05 15:09:28;;;;;;;4.55;2.20;;;;;;;;;;4844190;29;20235;-44
2023/10/05 15:11:55;;;;;;;4.80;1.60;;;;;;;;;;4844056;29;20243;-43
2023/10/05 15:14:23;;;;;;;5.55;2.28;;;;;;;;;;4844358;29;20645;-44
2023/10/05 15:16:52;;;;;;;6.72;2.28;;;;;;;;;;4844098;29;20333;-44
2023/10/05 15:19:22;;;;;;;6.45;1.63;;;;;;;;;;4844038;29;20695;-46
2023/10/05 15:21:50;;;;;;;7.25;2.45;;;;;;;;;;4843555;29;20259;-44
2023/10/05 15:24:17;;;;;;;7.18;2.17;;;;;;;;;;4844688;29;20240;-43
2023/10/05 15:26:48;;;;;;;7.93;2.30;;;;;;;;;;4844540;29;20231;-45
2023/10/05 15:29:16;;;;;;;4.85;2.13;;;;;;;;;;4842200;29;20247;-44
2023/10/05 15:31:44;;;;;;;4.85;2.00;;;;;;;;;;4841896;29;20231;-45